Northolt, United Kingdom

11:02 AM BST on July 24, 2016 (GMT +0100)
Northolt Air Base | | Change Station

Elev 121 ft 51.55 °N, 0.42 °W | Updated 12 minutes ago

Mostly Cloudy
Mostly Cloudy
70 °F
Feels Like 70 °F
N
10
Wind Variable Wind from WSW

Today
High -- | Low -- °F
--% Chance of Precip.
Yesterday
High -- | Low -- °F
Precip. -- in
Pressure 30.09 in
Visibility 6.2 miles
Clouds Few 2400 ft
Mostly Cloudy 3800 ft
Mostly Cloudy 20000 ft
Dew Point 59 °F
Humidity 68%
Rainfall 0.00 in
Snow Depth Not available.
5:14 AM 9:01 PM
Waning Gibbous, 77% visible
METAR EGWU 240950Z 24009KT 9999 FEW024 BKN038 BKN200 21/15 Q1019 BLU NOSIG
Pressure 30.09 in
Visibility 6.2 miles
Clouds Few 2400 ft
Mostly Cloudy 3800 ft
Mostly Cloudy 20000 ft
Dew Point 59 °F
Humidity 68%
Rainfall 0.00 in
Snow Depth Not available.
5:14 AM 9:01 PM
Waning Gibbous, 77% visible
METAR EGWU 240950Z 24009KT 9999 FEW024 BKN038 BKN200 21/15 Q1019 BLU NOSIG

10-Day Weather Forecast

×

Almanac

Astronomy

Jul. 24, 2016 Rise Set
Actual Time
Civil Twilight
Nautical Twilight
Astronomical Twilight
Moon
Length of Visible Light
Length of Day
Tomorrow will be .
, % of the Moon is Illuminated

Today's Extremes

Country Highs Country Lows

Community

WunderPhotos

Upload Photos

1,927,040 photos uploaded!

WunderBlog® & News

Nearby

Air Quality

  Air Quality AQ Index Pollutant
Not available.

Snow Depth

Station Depth Elevation

Earthquake Activity

City Distance Mag. Time & Date
Minimum magnitude displayed is 2.5.

Coastal Water Temperatures

Place Temperature

Stations

Nearby Weather Stations

Station Location Temp. Windchill Dew Point Humidity Wind Precip. Elev Updated Type